Terminal Aerodrome Forecast
Issued by NWS Los Angeles, CA

Home | Current Version | Previous Version | Text Only | Print | Product List | Glossary On
Versions: 1 2 3 4 5 6 7 8 9 10 11 12 13 14 15 16 17 18 19 20 21 22 23 24 25 26
000
FTUS46 KLOX 201100
TAFSMX
TAF
KSMX 201125Z 2012/2112 VRB03KT P6SM OVC015
     FM202100 31012KT P6SM FEW020
     FM210300 31008KT P6SM BKN020
     FM210600 VRB03KT P6SM OVC015=

USA.gov is the U.S. government's official web portal to all federal, state and local government web resources and services.